Time;durP1;ratioP1;P1;durP2;ratioP2;P2;SDS_P1;SDS_P2;PMS_P1;PMS_P2;Temp;Humidity;BMP_temperature;BMP_pressure;BME280_temperature;BME280_humidity;BME280_pressure;Samples;Min_cycle;Max_cycle;Signal;HPM_P1;HPM_P2
2022/03/16 00:02:27;;;;;;;15.00;7.93;;;6.30;99.90;;;;;;10292329;28;87468;-51
2022/03/16 00:07:27;;;;;;;16.55;7.68;;;6.30;99.90;;;;;;10314051;28;84139;-50
2022/03/16 00:12:28;;;;;;;14.25;7.32;;;6.20;99.90;;;;;;10283442;28;84023;-47
2022/03/16 00:17:29;;;;;;;15.48;7.40;;;6.10;99.90;;;;;;10282826;28;85081;-50
2022/03/16 00:22:29;;;;;;;13.90;6.70;;;6.20;99.90;;;;;;10308725;28;84051;-48
2022/03/16 00:27:30;;;;;;;15.25;8.07;;;6.10;99.90;;;;;;10364752;28;84146;-51
2022/03/16 00:32:31;;;;;;;13.10;7.75;;;6.00;99.90;;;;;;10363862;28;85094;-49
2022/03/16 00:37:32;;;;;;;16.00;8.07;;;6.00;99.90;;;;;;10360923;28;85080;-47
2022/03/16 00:42:33;;;;;;;21.40;8.27;;;5.90;99.90;;;;;;10331173;28;84573;-48
2022/03/16 00:47:33;;;;;;;12.85;7.57;;;5.90;99.90;;;;;;10311261;28;88093;-49
2022/03/16 00:52:34;;;;;;;13.30;6.85;;;5.80;99.90;;;;;;10329959;28;85158;-47
2022/03/16 00:57:35;;;;;;;18.33;8.27;;;5.70;99.90;;;;;;10329995;28;84885;-46
2022/03/16 01:02:36;;;;;;;16.25;8.23;;;5.60;99.90;;;;;;10312191;28;86982;-49
2022/03/16 01:07:37;;;;;;;16.60;8.55;;;5.70;99.90;;;;;;10305811;28;85065;-49
2022/03/16 01:12:38;;;;;;;16.73;9.35;;;5.70;99.90;;;;;;10311876;28;87081;-54
2022/03/16 01:17:39;;;;;;;15.80;8.70;;;5.80;99.90;;;;;;10311421;28;84743;-47
2022/03/16 01:22:39;;;;;;;23.85;9.73;;;5.80;99.90;;;;;;10328660;28;84791;-49
2022/03/16 01:27:40;;;;;;;23.23;10.20;;;5.70;99.90;;;;;;10310008;28;93756;-48
2022/03/16 01:32:41;;;;;;;17.33;8.93;;;5.70;99.90;;;;;;10310774;28;85781;-47
2022/03/16 01:37:45;;;;;;;19.90;9.00;;;5.70;99.90;;;;;;10293561;28;85879;-51
2022/03/16 01:42:46;;;;;;;20.33;9.30;;;5.70;99.90;;;;;;10310618;28;84287;-53
2022/03/16 01:47:46;;;;;;;13.18;7.82;;;5.60;99.90;;;;;;10326752;28;84808;-49
2022/03/16 01:52:49;;;;;;;16.38;8.52;;;5.60;99.90;;;;;;10309929;28;86186;-52
2022/03/16 01:57:49;;;;;;;14.45;8.40;;;5.60;99.90;;;;;;10327970;28;84601;-48
2022/03/16 02:02:50;;;;;;;16.50;8.80;;;5.40;99.90;;;;;;10293532;28;86404;-50
2022/03/16 02:07:51;;;;;;;14.68;8.35;;;5.40;99.90;;;;;;10300209;28;85392;-44
2022/03/16 02:12:52;;;;;;;18.58;9.20;;;5.30;99.90;;;;;;10352760;28;84752;-50
2022/03/16 02:17:55;;;;;;;14.60;7.88;;;5.30;99.90;;;;;;10344085;28;84068;-49
2022/03/16 02:23:00;;;;;;;18.92;8.38;;;5.30;99.90;;;;;;10325432;28;85119;-49
2022/03/16 02:28:01;;;;;;;14.32;8.50;;;5.10;99.90;;;;;;10343339;28;84835;-49
2022/03/16 02:33:02;;;;;;;16.35;7.82;;;5.10;99.90;;;;;;10293882;28;95004;-47
2022/03/16 02:38:03;;;;;;;20.15;9.00;;;5.00;99.90;;;;;;10329962;28;84589;-47
2022/03/16 02:43:03;;;;;;;21.70;9.65;;;5.00;99.90;;;;;;10345286;28;84753;-53
2022/03/16 02:48:05;;;;;;;20.30;9.05;;;5.10;99.90;;;;;;10357113;28;84955;-48
2022/03/16 02:53:05;;;;;;;16.33;8.93;;;5.00;99.90;;;;;;10439928;22;84305;-59
2022/03/16 02:58:07;;;;;;;14.35;9.18;;;5.10;99.90;;;;;;10451358;28;84949;-60
2022/03/16 03:03:08;;;;;;;17.00;9.18;;;5.00;99.90;;;;;;10454005;28;84920;-59
2022/03/16 03:08:09;;;;;;;18.52;9.10;;;5.00;99.90;;;;;;10450406;28;84771;-58
2022/03/16 03:13:11;;;;;;;20.25;9.25;;;4.90;99.90;;;;;;10453621;28;84882;-58
2022/03/16 03:18:12;;;;;;;16.33;9.27;;;4.80;99.90;;;;;;10413355;28;84793;-56
2022/03/16 03:23:13;;;;;;;18.33;9.98;;;4.80;99.90;;;;;;10411199;28;84972;-58
2022/03/16 03:28:15;;;;;;;16.83;9.75;;;4.70;99.90;;;;;;10444655;28;84854;-60
2022/03/16 03:33:15;;;;;;;20.05;10.25;;;4.70;99.90;;;;;;10444215;27;85232;-60
2022/03/16 03:38:17;;;;;;;21.15;10.20;;;4.70;99.90;;;;;;10430755;28;86648;-60
2022/03/16 03:43:18;;;;;;;20.00;10.52;;;4.70;99.90;;;;;;10440562;28;84773;-59
2022/03/16 03:48:18;;;;;;;22.40;10.45;;;4.80;99.90;;;;;;10425171;28;85057;-59
2022/03/16 03:53:19;;;;;;;19.77;9.60;;;4.80;99.90;;;;;;10416529;28;86149;-59
2022/03/16 03:58:19;;;;;;;20.38;10.50;;;4.80;99.90;;;;;;10442878;28;84073;-58
2022/03/16 04:03:20;;;;;;;18.85;10.45;;;4.70;99.90;;;;;;10443945;28;84792;-58
2022/03/16 04:08:21;;;;;;;17.67;9.48;;;4.70;99.90;;;;;;10443097;28;84069;-60
2022/03/16 04:13:21;;;;;;;18.25;9.35;;;4.70;99.90;;;;;;10416600;28;84123;-59
2022/03/16 04:18:23;;;;;;;19.70;9.68;;;4.60;99.90;;;;;;10447615;28;84148;-61
2022/03/16 04:23:23;;;;;;;18.23;9.82;;;4.60;99.90;;;;;;10422326;27;84044;-60
2022/03/16 04:28:24;;;;;;;20.23;9.93;;;4.60;99.90;;;;;;10417083;28;84253;-59
2022/03/16 04:33:24;;;;;;;22.25;10.32;;;4.70;99.90;;;;;;10432712;28;84803;-57
2022/03/16 04:38:25;;;;;;;21.65;10.35;;;4.70;99.90;;;;;;10422189;28;84966;-59
2022/03/16 04:43:26;;;;;;;20.63;10.45;;;4.60;99.90;;;;;;10415736;28;84112;-58
2022/03/16 04:48:27;;;;;;;18.58;9.43;;;4.60;99.90;;;;;;10433248;28;84119;-60
2022/03/16 04:53:27;;;;;;;19.60;10.35;;;4.60;99.90;;;;;;10457048;27;84808;-58
2022/03/16 04:58:28;;;;;;;18.00;9.40;;;4.50;99.90;;;;;;10438309;28;84815;-58
2022/03/16 05:03:29;;;;;;;19.13;10.57;;;4.40;99.90;;;;;;10414757;28;84912;-59
2022/03/16 05:08:29;;;;;;;25.92;10.77;;;4.30;99.90;;;;;;10430079;28;84405;-57
2022/03/16 05:13:30;;;;;;;22.02;10.23;;;4.40;99.90;;;;;;10416516;28;84047;-58
2022/03/16 05:18:31;;;;;;;32.30;12.15;;;4.40;99.90;;;;;;10435456;28;84888;-59
2022/03/16 05:23:31;;;;;;;24.90;11.00;;;4.30;99.90;;;;;;10459966;27;84063;-56
2022/03/16 05:28:33;;;;;;;37.58;10.00;;;4.30;99.90;;;;;;10454667;28;85033;-59
2022/03/16 05:33:33;;;;;;;21.67;10.30;;;4.30;99.90;;;;;;10457196;27;84940;-60
2022/03/16 05:38:34;;;;;;;25.38;10.88;;;4.20;99.90;;;;;;10454355;28;85097;-61
2022/03/16 05:43:34;;;;;;;25.17;10.20;;;4.20;99.90;;;;;;10438069;28;84752;-57
2022/03/16 05:48:35;;;;;;;24.42;8.65;;;4.00;99.90;;;;;;10454964;28;84088;-60
2022/03/16 05:53:36;;;;;;;21.10;9.45;;;4.00;99.90;;;;;;10458752;27;85153;-61
2022/03/16 05:58:36;;;;;;;15.35;7.35;;;3.90;99.90;;;;;;10449059;28;84981;-58
2022/03/16 06:03:37;;;;;;;20.20;8.45;;;3.80;99.90;;;;;;10431556;28;84315;-58
2022/03/16 06:08:38;;;;;;;24.47;13.13;;;3.60;99.90;;;;;;10442257;28;85254;-53
2022/03/16 06:13:38;;;;;;;17.45;8.90;;;3.60;99.90;;;;;;10439280;28;84292;-53
2022/03/16 06:18:39;;;;;;;17.52;8.30;;;3.50;99.90;;;;;;10414627;28;84301;-51
2022/03/16 06:23:40;;;;;;;12.45;6.93;;;3.30;99.90;;;;;;10433405;27;84880;-54
2022/03/16 06:28:40;;;;;;;13.05;7.65;;;3.20;99.90;;;;;;10433699;28;85091;-61
2022/03/16 06:33:41;;;;;;;12.07;7.22;;;3.30;99.90;;;;;;10420754;28;84940;-56
2022/03/16 06:38:41;;;;;;;14.65;8.20;;;3.30;99.90;;;;;;10414418;28;85304;-53
2022/03/16 06:43:42;;;;;;;15.05;7.72;;;3.40;99.90;;;;;;10413169;28;84048;-51
2022/03/16 06:48:43;;;;;;;15.30;7.45;;;3.40;99.90;;;;;;10435702;28;84135;-54
2022/03/16 06:53:43;;;;;;;13.95;7.32;;;3.40;99.90;;;;;;10433983;28;85121;-55
2022/03/16 06:58:44;;;;;;;15.32;7.65;;;3.50;99.90;;;;;;10412355;28;84222;-52
2022/03/16 07:03:45;;;;;;;15.25;7.32;;;3.60;99.90;;;;;;10438070;28;85047;-51
2022/03/16 07:08:46;;;;;;;12.30;7.13;;;3.70;99.90;;;;;;10432354;28;84843;-65
2022/03/16 07:14:30;;;;;;;16.52;8.32;;;3.70;99.90;;;;;;10450205;28;84096;-66
2022/03/16 07:19:08;;;;;;;15.18;7.63;;;3.90;99.90;;;;;;10418113;28;84753;-51
2022/03/16 07:24:10;;;;;;;13.55;6.90;;;4.00;99.90;;;;;;10442631;28;85040;-65
2022/03/16 07:29:10;;;;;;;12.13;7.78;;;4.20;99.90;;;;;;10421525;27;85083;-64
2022/03/16 07:34:12;;;;;;;16.73;9.13;;;4.60;99.90;;;;;;10408825;28;84715;-63
2022/03/16 07:39:12;;;;;;;15.43;8.75;;;5.60;99.90;;;;;;10417139;28;85199;-65
2022/03/16 07:44:13;;;;;;;15.35;9.15;;;6.50;99.90;;;;;;10407121;28;85079;-65
2022/03/16 07:49:14;;;;;;;11.07;7.35;;;7.10;99.90;;;;;;10407718;28;85122;-65
2022/03/16 07:54:14;;;;;;;13.23;7.82;;;7.70;1.00;;;;;;10400850;27;1101167;-62
2022/03/16 07:59:15;;;;;;;11.70;6.72;;;8.70;1.00;;;;;;10451508;27;84149;-64
2022/03/16 08:04:16;;;;;;;12.10;6.82;;;9.10;1.00;;;;;;10446357;28;85871;-60
2022/03/16 08:09:16;;;;;;;10.55;6.65;;;9.80;99.90;;;;;;10432632;28;84986;-59
2022/03/16 08:14:17;;;;;;;9.38;5.65;;;10.60;1.00;;;;;;10450455;28;84112;-63
2022/03/16 08:19:19;;;;;;;9.98;6.18;;;11.50;1.00;;;;;;10439386;28;84730;-61
2022/03/16 08:24:20;;;;;;;9.82;6.38;;;11.90;99.90;;;;;;10416149;28;84034;-58
2022/03/16 08:29:20;;;;;;;12.95;6.63;;;12.00;99.90;;;;;;10442933;28;89005;-62
2022/03/16 08:34:21;;;;;;;11.63;6.57;;;12.30;99.90;;;;;;10449016;28;84628;-62
2022/03/16 08:39:22;;;;;;;12.10;6.70;;;12.80;1.00;;;;;;10439691;28;86987;-63
2022/03/16 08:44:23;;;;;;;11.88;6.20;;;13.40;1.00;;;;;;10443214;28;88550;-62
2022/03/16 08:49:24;;;;;;;11.82;6.25;;;13.90;1.00;;;;;;10411548;27;84438;-60
2022/03/16 08:54:28;;;;;;;9.98;6.30;;;14.40;1.00;;;;;;10492923;22;84752;-59
2022/03/16 08:59:28;;;;;;;13.85;6.45;;;15.20;99.90;;;;;;10465290;27;84788;-57
2022/03/16 09:04:30;;;;;;;12.90;6.00;;;15.70;99.90;;;;;;10424752;28;84094;-58
2022/03/16 09:09:31;;;;;;;12.10;6.90;;;15.50;1.00;;;;;;10434179;28;86139;-58
2022/03/16 09:14:32;;;;;;;11.18;6.72;;;15.30;1.00;;;;;;10419736;27;84215;-47
2022/03/16 09:19:33;;;;;;;16.88;7.68;;;15.00;99.90;;;;;;10440480;28;85121;-54
2022/03/16 09:24:34;;;;;;;11.23;6.53;;;15.50;1.00;;;;;;10430047;28;85315;-56
2022/03/16 09:29:35;;;;;;;11.38;6.20;;;15.40;1.00;;;;;;10424186;27;84258;-63
2022/03/16 09:34:36;;;;;;;17.40;7.45;;;16.10;99.90;;;;;;10429497;28;84897;-61
2022/03/16 09:39:37;;;;;;;12.52;6.95;;;15.80;1.00;;;;;;10432121;28;86024;-63
2022/03/16 09:44:38;;;;;;;13.13;6.95;;;16.30;99.90;;;;;;10420368;28;84950;-59
2022/03/16 09:49:39;;;;;;;13.43;6.88;;;16.10;1.00;;;;;;10412184;28;84973;-59
2022/03/16 09:54:41;;;;;;;14.15;7.63;;;16.00;1.00;;;;;;10414103;28;85050;-55
2022/03/16 09:59:43;;;;;;;14.68;7.03;;;15.70;99.90;;;;;;10443604;28;84894;-61
2022/03/16 10:04:46;;;;;;;12.90;6.75;;;16.10;1.00;;;;;;10452008;27;84628;-56
2022/03/16 10:15:10;;;;;;;14.82;6.68;;;16.40;1.70;;;;;;10453450;28;84139;-62
2022/03/16 10:20:21;;;;;;;12.90;7.05;;;15.70;99.90;;;;;;10436169;27;84828;-64
2022/03/16 10:25:23;;;;;;;16.00;7.00;;;16.30;99.90;;;;;;10452239;28;84681;-60
2022/03/16 10:30:27;;;;;;;15.85;7.13;;;16.50;1.00;;;;;;10452388;27;84118;-61
2022/03/16 10:35:28;;;;;;;14.73;7.53;;;16.20;1.00;;;;;;10451996;27;84113;-58
2022/03/16 10:40:28;;;;;;;12.85;7.07;;;16.10;1.00;;;;;;10452198;28;84098;-58
2022/03/16 10:50:55;;;;;;;16.77;8.05;;;15.10;1.00;;;;;;10442436;28;84876;-58
2022/03/16 10:55:57;;;;;;;13.23;6.97;;;14.90;3.40;;;;;;10445206;28;84380;-59
2022/03/16 11:00:58;;;;;;;13.75;7.15;;;14.70;99.90;;;;;;10466191;27;84430;-58
2022/03/16 11:05:59;;;;;;;19.38;7.90;;;14.60;1.00;;;;;;10448198;28;84211;-60
2022/03/16 11:13:27;;;;;;;14.73;7.10;;;15.00;99.90;;;;;;10451710;28;84997;-62
2022/03/16 11:16:24;;;;;;;14.70;7.38;;;15.20;1.00;;;;;;10451102;27;85172;-60
2022/03/16 11:21:47;;;;;;;13.88;7.35;;;16.20;1.00;;;;;;10451108;27;84841;-60
2022/03/16 11:27:10;;;;;;;15.40;7.72;;;17.10;1.00;;;;;;10467153;27;85129;-57
2022/03/16 11:32:18;;;;;;;15.25;7.97;;;17.80;99.90;;;;;;10437080;27;84959;-62
2022/03/16 11:37:34;;;;;;;12.13;7.32;;;18.30;1.00;;;;;;10438461;28;86957;-60
2022/03/16 11:42:36;;;;;;;14.02;7.68;;;18.50;1.00;;;;;;10423988;27;84773;-59
2022/03/16 11:47:36;;;;;;;14.05;7.35;;;18.20;99.90;;;;;;10434200;28;84336;-59
2022/03/16 11:52:58;;;;;;;13.57;8.00;;;18.70;99.90;;;;;;10435909;28;84953;-58
2022/03/16 11:57:58;;;;;;;12.73;7.55;;;19.00;99.90;;;;;;10424081;28;84920;-57
2022/03/16 12:02:59;;;;;;;13.55;8.20;;;19.00;99.90;;;;;;10438665;28;88531;-57
2022/03/16 12:08:13;;;;;;;13.48;7.45;;;19.80;1.00;;;;;;10440625;28;84143;-53
2022/03/16 12:13:15;;;;;;;11.52;6.55;;;19.70;1.00;;;;;;10446663;28;84285;-59
2022/03/16 12:18:16;;;;;;;10.55;6.53;;;19.90;1.00;;;;;;10448389;28;84828;-56
2022/03/16 12:23:19;;;;;;;10.70;7.00;;;19.40;1.00;;;;;;10450248;28;84999;-57
2022/03/16 12:33:50;;;;;;;12.40;6.85;;;19.70;1.00;;;;;;10446973;27;84941;-59
2022/03/16 12:38:55;;;;;;;10.07;6.20;;;19.60;1.00;;;;;;10471590;27;84220;-56
2022/03/16 12:43:57;;;;;;;10.40;6.38;;;19.50;1.00;;;;;;10456081;27;84760;-58
2022/03/16 12:49:06;;;;;;;13.85;7.07;;;19.60;1.00;;;;;;10455669;28;84264;-59
2022/03/16 12:54:07;;;;;;;12.50;7.22;;;19.90;1.00;;;;;;10452656;27;84284;-58
2022/03/16 12:59:09;;;;;;;12.30;7.63;;;19.50;1.00;;;;;;10451842;28;86824;-60
2022/03/16 13:04:09;;;;;;;10.63;6.50;;;20.30;1.00;;;;;;10447982;27;86015;-62
2022/03/16 13:09:11;;;;;;;10.43;7.30;;;20.90;99.90;;;;;;10454077;28;84799;-61
2022/03/16 13:14:16;;;;;;;9.73;6.78;;;21.70;99.90;;;;;;10456279;27;84766;-62
2022/03/16 13:19:24;;;;;;;9.05;6.45;;;22.10;99.90;;;;;;10455957;27;84651;-62
2022/03/16 13:24:25;;;;;;;11.00;6.10;;;20.70;99.90;;;;;;10456427;28;84799;-58
2022/03/16 13:29:28;;;;;;;10.20;6.47;;;20.40;99.90;;;;;;10449895;28;84754;-62
2022/03/16 13:34:33;;;;;;;11.93;7.05;;;19.80;99.90;;;;;;10444502;27;85381;-61
2022/03/16 13:39:33;;;;;;;12.02;7.20;;;20.20;99.90;;;;;;10454010;28;84307;-60
2022/03/16 13:44:40;;;;;;;10.80;6.95;;;20.10;99.90;;;;;;10438859;27;84358;-62
2022/03/16 13:49:42;;;;;;;14.07;7.70;;;20.00;99.90;;;;;;10414432;28;84390;-62
2022/03/16 13:54:42;;;;;;;9.15;6.47;;;20.20;99.90;;;;;;10413472;28;85063;-62
2022/03/16 13:59:58;;;;;;;11.63;6.90;;;19.50;99.90;;;;;;10428011;28;84955;-60
2022/03/16 14:05:04;;;;;;;11.73;6.78;;;19.30;99.90;;;;;;10434299;28;84115;-58
2022/03/16 14:10:07;;;;;;;10.98;6.30;;;18.50;99.90;;;;;;10443014;28;84935;-57
2022/03/16 14:15:16;;;;;;;13.40;7.30;;;17.60;99.90;;;;;;10413697;28;84756;-60
2022/03/16 14:20:19;;;;;;;12.00;6.65;;;17.40;99.90;;;;;;10445054;27;85043;-63
2022/03/16 14:25:32;;;;;;;8.68;5.47;;;17.00;1.00;;;;;;10450672;28;84144;-62
2022/03/16 14:30:39;;;;;;;13.00;6.53;;;16.60;1.00;;;;;;10423220;28;86763;-62
2022/03/16 14:35:39;;;;;;;12.50;6.28;;;16.70;1.00;;;;;;10410708;28;84902;-60
2022/03/16 14:40:41;;;;;;;11.93;7.25;;;16.50;1.00;;;;;;10412621;28;84220;-62
2022/03/16 14:45:42;;;;;;;13.50;7.72;;;16.30;12.20;;;;;;10411164;28;84205;-61
2022/03/16 14:50:43;;;;;;;16.25;7.45;;;16.30;99.90;;;;;;10411718;28;84921;-60
2022/03/16 14:55:44;;;;;;;15.18;8.57;;;15.90;1.00;;;;;;10446016;27;84086;-60
2022/03/16 15:00:44;;;;;;;13.23;7.40;;;15.70;1.00;;;;;;10452659;28;84583;-59
2022/03/16 15:05:45;;;;;;;11.85;6.95;;;15.60;95.30;;;;;;10445708;28;84075;-56
2022/03/16 15:10:46;;;;;;;13.55;7.35;;;15.50;1.00;;;;;;10450318;28;86299;-57
2022/03/16 15:15:46;;;;;;;13.45;7.45;;;15.30;1.00;;;;;;10452347;28;85136;-60
2022/03/16 15:20:47;;;;;;;14.05;8.15;;;15.10;99.90;;;;;;10446348;22;84156;-57
2022/03/16 15:25:49;;;;;;;13.70;7.38;;;15.00;1.00;;;;;;10408467;28;84770;-54
2022/03/16 15:30:50;;;;;;;14.35;7.70;;;14.90;1.00;;;;;;10398722;28;83993;-56
2022/03/16 15:35:53;;;;;;;13.25;7.07;;;14.90;1.00;;;;;;10366510;28;84873;-52
2022/03/16 15:46:15;;;;;;;13.85;7.97;;;14.90;53.60;;;;;;10375649;28;86009;-52
2022/03/16 15:51:16;;;;;;;15.25;7.03;;;14.80;99.90;;;;;;10344785;28;84692;-51
2022/03/16 15:56:17;;;;;;;12.38;7.72;;;14.60;1.00;;;;;;10345167;28;84944;-52
2022/03/16 16:01:18;;;;;;;13.57;7.47;;;14.70;1.00;;;;;;10381188;28;85077;-51
2022/03/16 16:06:18;;;;;;;12.77;7.38;;;14.70;1.00;;;;;;10339060;28;84041;-53
2022/03/16 16:11:19;;;;;;;15.90;7.15;;;14.70;1.00;;;;;;10367275;28;84027;-49
2022/03/16 16:16:20;;;;;;;13.20;7.60;;;14.70;1.00;;;;;;10366713;28;84099;-53
2022/03/16 16:21:21;;;;;;;13.93;7.05;;;14.50;99.90;;;;;;10349029;28;87494;-48
2022/03/16 16:26:22;;;;;;;13.45;7.65;;;14.40;1.00;;;;;;10347531;28;84978;-47
2022/03/16 16:31:24;;;;;;;14.30;7.55;;;14.10;1.00;;;;;;10366968;28;86000;-54
2022/03/16 16:36:25;;;;;;;12.77;7.05;;;14.10;99.90;;;;;;10349460;28;85110;-51
2022/03/16 16:41:26;;;;;;;13.27;7.65;;;14.00;1.00;;;;;;10367162;28;84643;-49
2022/03/16 16:46:26;;;;;;;17.58;7.60;;;13.90;1.00;;;;;;10367245;28;84819;-48
2022/03/16 16:51:29;;;;;;;13.82;7.40;;;13.90;1.00;;;;;;10349980;28;84918;-48
2022/03/16 16:56:30;;;;;;;17.52;7.70;;;13.60;99.90;;;;;;10364133;28;85398;-51
2022/03/16 17:01:31;;;;;;;16.58;8.07;;;13.50;1.00;;;;;;10356980;28;84875;-51
2022/03/16 17:06:33;;;;;;;14.20;7.63;;;13.40;1.00;;;;;;10360553;28;85067;-49
2022/03/16 17:11:35;;;;;;;15.35;8.25;;;13.30;1.00;;;;;;10369538;28;84266;-49
2022/03/16 17:16:36;;;;;;;15.50;8.13;;;13.20;1.00;;;;;;10366597;28;85141;-50
2022/03/16 17:21:37;;;;;;;15.43;7.45;;;13.10;38.70;;;;;;10362417;28;84958;-50
2022/03/16 17:26:38;;;;;;;16.33;7.72;;;13.10;99.90;;;;;;10369512;28;84244;-55
2022/03/16 17:31:40;;;;;;;12.80;7.57;;;13.00;99.90;;;;;;10370177;28;85118;-53
2022/03/16 17:36:41;;;;;;;14.70;7.30;;;13.00;99.90;;;;;;10367012;28;84559;-54
2022/03/16 17:47:01;;;;;;;15.25;8.15;;;12.80;99.90;;;;;;10366615;28;84233;-54
2022/03/16 17:52:02;;;;;;;16.17;8.10;;;12.80;99.90;;;;;;10374522;28;84158;-49
2022/03/16 17:57:03;;;;;;;13.50;6.95;;;12.80;99.90;;;;;;10371628;28;84496;-51
2022/03/16 18:02:05;;;;;;;15.15;7.38;;;12.80;99.90;;;;;;10361035;28;84611;-51
2022/03/16 18:07:05;;;;;;;14.75;7.63;;;12.80;99.90;;;;;;10368834;28;84940;-48
2022/03/16 18:17:25;;;;;;;15.90;7.45;;;12.60;1.00;;;;;;10360155;28;85137;-52
2022/03/16 18:22:29;;;;;;;15.15;7.70;;;12.50;1.00;;;;;;10359053;28;84365;-53
2022/03/16 18:27:30;;;;;;;14.77;7.55;;;12.50;1.00;;;;;;10350216;28;84963;-52
2022/03/16 18:32:31;;;;;;;14.23;8.27;;;12.50;1.00;;;;;;10371842;28;84446;-50
2022/03/16 18:37:34;;;;;;;14.60;7.85;;;12.40;1.00;;;;;;10353220;28;84889;-49
2022/03/16 18:42:35;;;;;;;14.00;7.28;;;12.40;1.00;;;;;;10365017;28;84216;-53
2022/03/16 18:47:36;;;;;;;15.95;8.35;;;12.30;1.00;;;;;;10342278;28;84131;-50
2022/03/16 18:52:36;;;;;;;15.90;7.80;;;12.30;1.00;;;;;;10372607;28;84176;-48
2022/03/16 18:57:39;;;;;;;16.00;7.82;;;12.30;1.00;;;;;;10352499;28;84511;-49
2022/03/16 19:02:40;;;;;;;18.05;8.52;;;12.30;96.30;;;;;;10331429;28;83980;-48
2022/03/16 19:07:41;;;;;;;18.13;9.05;;;12.30;99.90;;;;;;10331280;28;84074;-48
2022/03/16 19:18:01;;;;;;;15.05;8.55;;;12.20;1.00;;;;;;10356162;28;85166;-50
2022/03/16 19:23:02;;;;;;;17.83;8.15;;;12.10;1.00;;;;;;10364642;28;84295;-50
2022/03/16 19:28:04;;;;;;;19.67;8.88;;;12.10;1.00;;;;;;10348547;28;84754;-50
2022/03/16 19:33:05;;;;;;;18.85;8.93;;;12.10;1.00;;;;;;10369229;28;86055;-52
2022/03/16 19:38:06;;;;;;;19.85;9.00;;;12.10;1.00;;;;;;10367029;28;84175;-48
2022/03/16 19:43:07;;;;;;;15.18;7.53;;;12.10;1.00;;;;;;10328439;28;85741;-47
2022/03/16 19:48:08;;;;;;;15.50;7.75;;;12.10;1.00;;;;;;10315853;28;85103;-52
2022/03/16 19:53:09;;;;;;;16.85;8.20;;;12.10;1.00;;;;;;10367393;28;84239;-50
2022/03/16 19:58:12;;;;;;;16.85;8.23;;;12.10;1.00;;;;;;10359515;28;84726;-53
2022/03/16 20:03:16;;;;;;;20.92;8.50;;;12.10;1.00;;;;;;10344866;28;84920;-63
2022/03/16 20:08:16;;;;;;;15.77;8.55;;;12.00;1.00;;;;;;10354195;28;84869;-49
2022/03/16 20:13:18;;;;;;;24.83;9.95;;;12.00;1.00;;;;;;10358212;28;84255;-50
2022/03/16 20:18:21;;;;;;;14.55;8.32;;;11.90;1.00;;;;;;10367175;28;84289;-54
2022/03/16 20:23:23;;;;;;;17.55;7.90;;;11.90;1.00;;;;;;10344980;28;86179;-49
2022/03/16 20:28:24;;;;;;;20.95;9.15;;;11.80;1.00;;;;;;10349666;28;86028;-50
2022/03/16 20:33:25;;;;;;;16.85;8.50;;;11.80;1.00;;;;;;10359571;28;84981;-49
2022/03/16 20:38:26;;;;;;;21.00;8.02;;;11.80;1.00;;;;;;10329054;28;84880;-54
2022/03/16 20:43:27;;;;;;;18.75;8.82;;;11.80;1.00;;;;;;10350945;28;84171;-48
2022/03/16 20:48:28;;;;;;;18.05;7.93;;;11.70;1.00;;;;;;10349027;28;86182;-53
2022/03/16 20:53:30;;;;;;;15.77;8.25;;;11.70;1.00;;;;;;10370648;28;85174;-47
2022/03/16 21:03:49;;;;;;;15.65;7.53;;;11.70;1.00;;;;;;10376531;28;84100;-48
2022/03/16 21:08:50;;;;;;;17.75;8.57;;;11.70;1.00;;;;;;10369018;28;84145;-50
2022/03/16 21:13:51;;;;;;;18.30;8.35;;;11.70;1.00;;;;;;10375122;28;84855;-49
2022/03/16 21:18:52;;;;;;;16.10;8.05;;;11.60;1.00;;;;;;10398607;22;85891;-46
2022/03/16 21:23:52;;;;;;;18.10;9.00;;;11.50;1.00;;;;;;10427710;28;86644;-43
2022/03/16 21:28:53;;;;;;;20.58;8.80;;;11.50;1.00;;;;;;10425845;28;85799;-46
2022/03/16 21:33:53;;;;;;;16.42;7.93;;;11.50;1.00;;;;;;10420174;28;85147;-49
2022/03/16 21:38:54;;;;;;;18.20;8.48;;;11.50;1.00;;;;;;10439101;28;84209;-49
2022/03/16 21:43:55;;;;;;;16.70;8.23;;;11.50;1.00;;;;;;10430057;28;84739;-46
2022/03/16 21:49:01;;;;;;;17.77;8.57;;;11.50;1.00;;;;;;10425146;28;84383;-46
2022/03/16 21:54:01;;;;;;;16.90;8.45;;;11.50;1.00;;;;;;10435626;28;84760;-47
2022/03/16 21:59:03;;;;;;;14.60;7.82;;;11.50;1.00;;;;;;10445345;28;85074;-45
2022/03/16 22:04:05;;;;;;;17.55;7.93;;;11.40;1.00;;;;;;10413872;28;84062;-48
2022/03/16 22:09:07;;;;;;;21.35;9.30;;;11.30;1.00;;;;;;10403100;28;85112;-50
2022/03/16 22:14:09;;;;;;;19.77;8.82;;;11.30;1.00;;;;;;10455459;28;86228;-50
2022/03/16 22:19:10;;;;;;;18.75;8.90;;;11.30;1.00;;;;;;10411600;28;85246;-47
2022/03/16 22:24:10;;;;;;;17.10;7.85;;;11.20;1.00;;;;;;10413850;28;84751;-46
2022/03/16 22:29:11;;;;;;;19.65;9.32;;;11.20;44.10;;;;;;10435844;28;84094;-50
2022/03/16 22:34:12;;;;;;;17.40;8.63;;;11.20;80.80;;;;;;10454523;28;84714;-50
2022/03/16 22:39:12;;;;;;;21.23;9.23;;;11.20;99.90;;;;;;10431693;28;84039;-48
2022/03/16 22:44:13;;;;;;;20.30;8.90;;;11.00;99.90;;;;;;10394574;28;86780;-48
2022/03/16 22:49:14;;;;;;;15.68;8.35;;;11.00;99.90;;;;;;10422249;28;95931;-48
2022/03/16 22:54:14;;;;;;;17.92;8.45;;;11.00;99.90;;;;;;10454512;28;84002;-48
2022/03/16 22:59:15;;;;;;;18.85;8.65;;;11.00;99.90;;;;;;10441905;28;84284;-46
2022/03/16 23:04:15;;;;;;;18.58;7.82;;;11.00;99.90;;;;;;10430484;28;84876;-48
2022/03/16 23:09:16;;;;;;;18.55;8.35;;;11.00;99.90;;;;;;10433095;28;84503;-45
2022/03/16 23:14:17;;;;;;;19.67;8.80;;;10.90;99.90;;;;;;10412000;28;84794;-46
2022/03/16 23:19:17;;;;;;;20.75;9.98;;;10.90;99.90;;;;;;10420760;28;84791;-44
2022/03/16 23:24:18;;;;;;;19.73;9.70;;;10.90;99.90;;;;;;10435114;28;86380;-46
2022/03/16 23:29:19;;;;;;;16.40;8.55;;;10.90;99.90;;;;;;10423147;28;84900;-46
2022/03/16 23:34:19;;;;;;;18.90;8.57;;;10.90;99.90;;;;;;10393482;28;84435;-46
2022/03/16 23:39:20;;;;;;;20.17;9.05;;;10.80;99.90;;;;;;10420414;28;84200;-50
2022/03/16 23:44:21;;;;;;;17.30;8.52;;;10.90;99.90;;;;;;10453428;28;85006;-46
2022/03/16 23:49:22;;;;;;;21.65;8.93;;;10.80;99.90;;;;;;10441946;28;84930;-49
2022/03/16 23:54:23;;;;;;;17.58;8.88;;;10.70;99.90;;;;;;10411390;28;84287;-46
2022/03/16 23:59:24;;;;;;;24.95;9.25;;;10.70;99.90;;;;;;10385190;28;86093;-47
